sensor_id;sensor_type;location;lat;lon;timestamp;P1;durP1;ratioP1;P2;durP2;ratioP2
44512;SDS011;30219;50.588;9.504;2022-08-06T00:01:00;3.88;;;2.15;;
44512;SDS011;30219;50.588;9.504;2022-08-06T00:03:26;5.38;;;2.22;;
44512;SDS011;30219;50.588;9.504;2022-08-06T00:05:52;3.85;;;2.00;;
44512;SDS011;30219;50.588;9.504;2022-08-06T00:08:17;3.38;;;1.98;;
44512;SDS011;30219;50.588;9.504;2022-08-06T00:10:43;3.10;;;1.80;;
44512;SDS011;30219;50.588;9.504;2022-08-06T00:13:10;5.47;;;2.03;;
44512;SDS011;30219;50.588;9.504;2022-08-06T00:15:36;4.05;;;1.80;;
44512;SDS011;30219;50.588;9.504;2022-08-06T00:18:02;3.95;;;1.60;;
44512;SDS011;30219;50.588;9.504;2022-08-06T00:20:28;3.20;;;1.60;;
44512;SDS011;30219;50.588;9.504;2022-08-06T00:22:53;6.10;;;1.60;;
44512;SDS011;30219;50.588;9.504;2022-08-06T00:25:19;3.53;;;1.42;;
44512;SDS011;30219;50.588;9.504;2022-08-06T00:27:45;3.30;;;1.50;;
44512;SDS011;30219;50.588;9.504;2022-08-06T00:30:10;3.75;;;1.40;;
44512;SDS011;30219;50.588;9.504;2022-08-06T00:32:36;10.10;;;1.80;;
44512;SDS011;30219;50.588;9.504;2022-08-06T00:35:02;3.35;;;1.20;;
44512;SDS011;30219;50.588;9.504;2022-08-06T00:37:29;5.80;;;1.80;;
44512;SDS011;30219;50.588;9.504;2022-08-06T00:39:57;3.45;;;1.73;;
44512;SDS011;30219;50.588;9.504;2022-08-06T00:42:23;3.15;;;1.30;;
44512;SDS011;30219;50.588;9.504;2022-08-06T00:44:49;6.25;;;1.50;;
44512;SDS011;30219;50.588;9.504;2022-08-06T00:47:15;6.22;;;1.88;;
44512;SDS011;30219;50.588;9.504;2022-08-06T00:49:41;3.55;;;1.50;;
44512;SDS011;30219;50.588;9.504;2022-08-06T00:52:06;3.80;;;1.60;;
44512;SDS011;30219;50.588;9.504;2022-08-06T00:54:32;4.47;;;1.90;;
44512;SDS011;30219;50.588;9.504;2022-08-06T00:56:57;4.60;;;1.98;;
44512;SDS011;30219;50.588;9.504;2022-08-06T00:59:23;3.42;;;1.67;;
44512;SDS011;30219;50.588;9.504;2022-08-06T01:01:49;3.65;;;1.75;;
44512;SDS011;30219;50.588;9.504;2022-08-06T01:04:14;4.80;;;1.80;;
44512;SDS011;30219;50.588;9.504;2022-08-06T01:06:40;2.90;;;1.80;;
44512;SDS011;30219;50.588;9.504;2022-08-06T01:09:06;3.47;;;1.70;;
44512;SDS011;30219;50.588;9.504;2022-08-06T01:11:32;5.55;;;1.90;;
44512;SDS011;30219;50.588;9.504;2022-08-06T01:13:57;2.95;;;1.65;;
44512;SDS011;30219;50.588;9.504;2022-08-06T01:16:25;8.68;;;2.00;;
44512;SDS011;30219;50.588;9.504;2022-08-06T01:24:36;3.22;;;1.98;;
44512;SDS011;30219;50.588;9.504;2022-08-06T01:30:03;4.18;;;1.88;;
44512;SDS011;30219;50.588;9.504;2022-08-06T01:32:32;2.90;;;1.70;;
44512;SDS011;30219;50.588;9.504;2022-08-06T01:35:04;3.97;;;2.05;;
44512;SDS011;30219;50.588;9.504;2022-08-06T01:37:36;3.10;;;1.63;;
44512;SDS011;30219;50.588;9.504;2022-08-06T01:40:10;3.95;;;1.63;;
44512;SDS011;30219;50.588;9.504;2022-08-06T01:42:49;2.55;;;1.40;;
44512;SDS011;30219;50.588;9.504;2022-08-06T01:45:17;8.65;;;1.63;;
44512;SDS011;30219;50.588;9.504;2022-08-06T01:47:45;4.53;;;1.52;;
44512;SDS011;30219;50.588;9.504;2022-08-06T01:50:15;3.55;;;1.88;;
44512;SDS011;30219;50.588;9.504;2022-08-06T01:52:44;3.30;;;2.08;;
44512;SDS011;30219;50.588;9.504;2022-08-06T01:55:12;2.38;;;1.60;;
44512;SDS011;30219;50.588;9.504;2022-08-06T01:57:40;4.72;;;1.50;;
44512;SDS011;30219;50.588;9.504;2022-08-06T02:00:08;3.67;;;1.40;;
44512;SDS011;30219;50.588;9.504;2022-08-06T02:02:34;3.60;;;1.63;;
44512;SDS011;30219;50.588;9.504;2022-08-06T02:05:02;4.40;;;1.52;;
44512;SDS011;30219;50.588;9.504;2022-08-06T02:07:32;5.80;;;2.30;;
44512;SDS011;30219;50.588;9.504;2022-08-06T02:10:02;4.70;;;1.98;;
44512;SDS011;30219;50.588;9.504;2022-08-06T02:12:29;5.72;;;1.60;;
44512;SDS011;30219;50.588;9.504;2022-08-06T02:14:58;4.43;;;1.52;;
44512;SDS011;30219;50.588;9.504;2022-08-06T02:17:28;3.72;;;1.75;;
44512;SDS011;30219;50.588;9.504;2022-08-06T02:19:56;3.05;;;1.52;;
44512;SDS011;30219;50.588;9.504;2022-08-06T02:22:27;3.70;;;1.63;;
44512;SDS011;30219;50.588;9.504;2022-08-06T02:24:55;3.85;;;1.70;;
44512;SDS011;30219;50.588;9.504;2022-08-06T02:27:25;3.50;;;1.48;;
44512;SDS011;30219;50.588;9.504;2022-08-06T02:29:52;1.73;;;1.20;;
44512;SDS011;30219;50.588;9.504;2022-08-06T02:32:23;3.50;;;1.60;;
44512;SDS011;30219;50.588;9.504;2022-08-06T02:34:48;3.10;;;1.55;;
44512;SDS011;30219;50.588;9.504;2022-08-06T02:37:19;4.05;;;1.55;;
44512;SDS011;30219;50.588;9.504;2022-08-06T02:39:52;5.70;;;1.80;;
44512;SDS011;30219;50.588;9.504;2022-08-06T02:50:04;5.20;;;1.93;;
44512;SDS011;30219;50.588;9.504;2022-08-06T02:55:25;2.40;;;1.63;;
44512;SDS011;30219;50.588;9.504;2022-08-06T02:57:59;3.38;;;1.70;;
44512;SDS011;30219;50.588;9.504;2022-08-06T03:00:47;5.25;;;1.77;;
44512;SDS011;30219;50.588;9.504;2022-08-06T03:03:14;2.92;;;1.58;;
44512;SDS011;30219;50.588;9.504;2022-08-06T03:05:42;2.58;;;1.60;;
44512;SDS011;30219;50.588;9.504;2022-08-06T03:08:10;4.68;;;1.60;;
44512;SDS011;30219;50.588;9.504;2022-08-06T03:10:39;4.70;;;2.03;;
44512;SDS011;30219;50.588;9.504;2022-08-06T03:13:06;3.10;;;1.30;;
44512;SDS011;30219;50.588;9.504;2022-08-06T03:15:34;2.00;;;1.17;;
44512;SDS011;30219;50.588;9.504;2022-08-06T03:18:01;2.15;;;1.40;;
44512;SDS011;30219;50.588;9.504;2022-08-06T03:20:28;4.53;;;1.48;;
44512;SDS011;30219;50.588;9.504;2022-08-06T03:22:57;3.67;;;1.70;;
44512;SDS011;30219;50.588;9.504;2022-08-06T03:25:26;3.38;;;1.50;;
44512;SDS011;30219;50.588;9.504;2022-08-06T03:27:53;5.05;;;1.67;;
44512;SDS011;30219;50.588;9.504;2022-08-06T03:30:19;9.00;;;2.05;;
44512;SDS011;30219;50.588;9.504;2022-08-06T03:32:46;3.65;;;1.40;;
44512;SDS011;30219;50.588;9.504;2022-08-06T03:35:13;3.40;;;1.40;;
44512;SDS011;30219;50.588;9.504;2022-08-06T03:37:41;3.83;;;1.40;;
44512;SDS011;30219;50.588;9.504;2022-08-06T03:40:07;1.83;;;1.42;;
44512;SDS011;30219;50.588;9.504;2022-08-06T03:42:34;6.07;;;1.58;;
44512;SDS011;30219;50.588;9.504;2022-08-06T03:45:00;2.97;;;1.23;;
44512;SDS011;30219;50.588;9.504;2022-08-06T03:47:27;3.75;;;1.50;;
44512;SDS011;30219;50.588;9.504;2022-08-06T03:50:05;2.75;;;1.50;;
44512;SDS011;30219;50.588;9.504;2022-08-06T03:52:40;3.25;;;1.40;;
44512;SDS011;30219;50.588;9.504;2022-08-06T03:55:12;3.70;;;1.60;;
44512;SDS011;30219;50.588;9.504;2022-08-06T03:57:43;2.35;;;1.40;;
44512;SDS011;30219;50.588;9.504;2022-08-06T04:00:13;3.15;;;1.60;;
44512;SDS011;30219;50.588;9.504;2022-08-06T04:02:43;2.65;;;1.60;;
44512;SDS011;30219;50.588;9.504;2022-08-06T04:07:43;3.08;;;1.52;;
44512;SDS011;30219;50.588;9.504;2022-08-06T04:10:11;4.50;;;1.63;;
44512;SDS011;30219;50.588;9.504;2022-08-06T04:12:38;2.45;;;1.48;;
44512;SDS011;30219;50.588;9.504;2022-08-06T04:15:05;5.00;;;1.83;;
44512;SDS011;30219;50.588;9.504;2022-08-06T04:17:31;7.47;;;1.85;;
44512;SDS011;30219;50.588;9.504;2022-08-06T04:19:58;3.63;;;1.70;;
44512;SDS011;30219;50.588;9.504;2022-08-06T04:22:25;5.85;;;1.70;;
44512;SDS011;30219;50.588;9.504;2022-08-06T04:24:51;4.93;;;1.70;;
44512;SDS011;30219;50.588;9.504;2022-08-06T04:27:17;3.85;;;1.55;;
44512;SDS011;30219;50.588;9.504;2022-08-06T04:29:45;5.30;;;1.63;;
44512;SDS011;30219;50.588;9.504;2022-08-06T04:32:12;4.13;;;1.50;;
44512;SDS011;30219;50.588;9.504;2022-08-06T04:34:39;10.43;;;2.33;;
44512;SDS011;30219;50.588;9.504;2022-08-06T04:37:07;4.80;;;1.73;;
44512;SDS011;30219;50.588;9.504;2022-08-06T04:39:33;3.60;;;1.83;;
44512;SDS011;30219;50.588;9.504;2022-08-06T04:42:00;6.15;;;2.25;;
44512;SDS011;30219;50.588;9.504;2022-08-06T04:44:27;3.25;;;1.67;;
44512;SDS011;30219;50.588;9.504;2022-08-06T04:46:53;3.13;;;1.83;;
44512;SDS011;30219;50.588;9.504;2022-08-06T04:49:20;3.42;;;1.45;;
44512;SDS011;30219;50.588;9.504;2022-08-06T04:51:46;4.90;;;1.40;;
44512;SDS011;30219;50.588;9.504;2022-08-06T04:54:15;3.15;;;1.30;;
44512;SDS011;30219;50.588;9.504;2022-08-06T04:56:41;3.80;;;1.25;;
44512;SDS011;30219;50.588;9.504;2022-08-06T04:59:08;4.80;;;1.40;;
44512;SDS011;30219;50.588;9.504;2022-08-06T05:01:35;3.33;;;1.50;;
44512;SDS011;30219;50.588;9.504;2022-08-06T05:04:02;3.85;;;1.50;;
44512;SDS011;30219;50.588;9.504;2022-08-06T05:06:35;2.75;;;1.30;;
44512;SDS011;30219;50.588;9.504;2022-08-06T05:09:03;2.45;;;1.40;;
44512;SDS011;30219;50.588;9.504;2022-08-06T05:11:38;5.70;;;1.20;;
44512;SDS011;30219;50.588;9.504;2022-08-06T05:14:09;4.63;;;1.20;;
44512;SDS011;30219;50.588;9.504;2022-08-06T05:16:41;2.83;;;1.10;;
44512;SDS011;30219;50.588;9.504;2022-08-06T05:19:17;2.75;;;1.23;;
44512;SDS011;30219;50.588;9.504;2022-08-06T05:21:50;2.25;;;1.25;;
44512;SDS011;30219;50.588;9.504;2022-08-06T05:24:19;2.75;;;1.10;;
44512;SDS011;30219;50.588;9.504;2022-08-06T05:26:45;4.53;;;1.30;;
44512;SDS011;30219;50.588;9.504;2022-08-06T05:29:11;1.58;;;1.02;;
44512;SDS011;30219;50.588;9.504;2022-08-06T05:31:38;2.20;;;1.10;;
44512;SDS011;30219;50.588;9.504;2022-08-06T05:34:09;4.00;;;1.30;;
44512;SDS011;30219;50.588;9.504;2022-08-06T05:36:36;2.17;;;1.10;;
44512;SDS011;30219;50.588;9.504;2022-08-06T05:39:03;2.70;;;1.30;;
44512;SDS011;30219;50.588;9.504;2022-08-06T05:41:29;3.67;;;1.58;;
44512;SDS011;30219;50.588;9.504;2022-08-06T05:43:54;4.65;;;1.50;;
44512;SDS011;30219;50.588;9.504;2022-08-06T05:46:21;3.63;;;1.30;;
44512;SDS011;30219;50.588;9.504;2022-08-06T05:51:33;4.70;;;1.20;;
44512;SDS011;30219;50.588;9.504;2022-08-06T05:54:41;3.92;;;1.33;;
44512;SDS011;30219;50.588;9.504;2022-08-06T05:57:28;2.85;;;1.38;;
44512;SDS011;30219;50.588;9.504;2022-08-06T06:00:03;4.75;;;1.20;;
44512;SDS011;30219;50.588;9.504;2022-08-06T06:02:35;3.35;;;1.38;;
44512;SDS011;30219;50.588;9.504;2022-08-06T06:05:04;1.80;;;1.10;;
44512;SDS011;30219;50.588;9.504;2022-08-06T06:07:32;4.95;;;1.27;;
44512;SDS011;30219;50.588;9.504;2022-08-06T06:09:58;2.92;;;1.20;;
44512;SDS011;30219;50.588;9.504;2022-08-06T06:12:26;4.20;;;1.30;;
44512;SDS011;30219;50.588;9.504;2022-08-06T06:14:54;3.28;;;1.67;;
44512;SDS011;30219;50.588;9.504;2022-08-06T06:22:39;6.30;;;1.38;;
44512;SDS011;30219;50.588;9.504;2022-08-06T06:26:12;2.75;;;1.30;;
44512;SDS011;30219;50.588;9.504;2022-08-06T06:33:26;3.05;;;1.00;;
44512;SDS011;30219;50.588;9.504;2022-08-06T06:36:03;3.05;;;0.70;;
44512;SDS011;30219;50.588;9.504;2022-08-06T06:39:04;2.97;;;0.80;;
44512;SDS011;30219;50.588;9.504;2022-08-06T06:41:36;3.53;;;0.80;;
44512;SDS011;30219;50.588;9.504;2022-08-06T06:44:17;2.78;;;0.73;;
44512;SDS011;30219;50.588;9.504;2022-08-06T06:47:00;5.50;;;0.90;;
44512;SDS011;30219;50.588;9.504;2022-08-06T06:49:38;2.15;;;0.75;;
44512;SDS011;30219;50.588;9.504;2022-08-06T06:55:08;3.63;;;0.60;;
44512;SDS011;30219;50.588;9.504;2022-08-06T06:57:39;2.28;;;0.80;;
44512;SDS011;30219;50.588;9.504;2022-08-06T07:00:10;1.92;;;0.80;;
44512;SDS011;30219;50.588;9.504;2022-08-06T07:02:37;4.07;;;0.68;;
44512;SDS011;30219;50.588;9.504;2022-08-06T07:05:07;1.98;;;0.68;;
44512;SDS011;30219;50.588;9.504;2022-08-06T07:07:35;2.20;;;0.70;;
44512;SDS011;30219;50.588;9.504;2022-08-06T07:10:04;6.45;;;0.82;;
44512;SDS011;30219;50.588;9.504;2022-08-06T07:12:33;3.72;;;0.63;;
44512;SDS011;30219;50.588;9.504;2022-08-06T07:15:00;2.90;;;0.65;;
44512;SDS011;30219;50.588;9.504;2022-08-06T07:17:28;3.55;;;0.70;;
44512;SDS011;30219;50.588;9.504;2022-08-06T07:19:57;2.08;;;0.70;;
44512;SDS011;30219;50.588;9.504;2022-08-06T07:22:26;1.83;;;0.82;;
44512;SDS011;30219;50.588;9.504;2022-08-06T07:24:57;3.25;;;0.65;;
44512;SDS011;30219;50.588;9.504;2022-08-06T07:27:24;2.72;;;0.60;;
44512;SDS011;30219;50.588;9.504;2022-08-06T07:29:54;3.90;;;0.80;;
44512;SDS011;30219;50.588;9.504;2022-08-06T07:32:21;3.80;;;0.70;;
44512;SDS011;30219;50.588;9.504;2022-08-06T07:34:48;2.72;;;0.68;;
44512;SDS011;30219;50.588;9.504;2022-08-06T07:37:15;4.15;;;1.08;;
44512;SDS011;30219;50.588;9.504;2022-08-06T07:39:43;2.05;;;0.57;;
44512;SDS011;30219;50.588;9.504;2022-08-06T07:42:12;2.70;;;0.60;;
44512;SDS011;30219;50.588;9.504;2022-08-06T07:44:44;4.35;;;0.65;;
44512;SDS011;30219;50.588;9.504;2022-08-06T07:47:15;1.48;;;0.50;;
44512;SDS011;30219;50.588;9.504;2022-08-06T07:49:52;4.05;;;0.70;;
44512;SDS011;30219;50.588;9.504;2022-08-06T07:52:21;1.30;;;0.50;;
44512;SDS011;30219;50.588;9.504;2022-08-06T07:54:59;1.40;;;0.52;;
44512;SDS011;30219;50.588;9.504;2022-08-06T07:57:25;2.90;;;0.55;;
44512;SDS011;30219;50.588;9.504;2022-08-06T07:59:52;4.22;;;1.08;;
44512;SDS011;30219;50.588;9.504;2022-08-06T08:02:18;5.75;;;1.23;;
44512;SDS011;30219;50.588;9.504;2022-08-06T08:04:44;3.72;;;0.73;;
44512;SDS011;30219;50.588;9.504;2022-08-06T08:07:29;3.58;;;1.02;;
44512;SDS011;30219;50.588;9.504;2022-08-06T08:09:56;6.30;;;0.77;;
44512;SDS011;30219;50.588;9.504;2022-08-06T08:12:24;2.92;;;0.57;;
44512;SDS011;30219;50.588;9.504;2022-08-06T08:14:51;1.70;;;0.55;;
44512;SDS011;30219;50.588;9.504;2022-08-06T08:17:17;3.00;;;0.63;;
44512;SDS011;30219;50.588;9.504;2022-08-06T08:19:43;1.90;;;0.52;;
44512;SDS011;30219;50.588;9.504;2022-08-06T08:22:09;4.35;;;0.90;;
44512;SDS011;30219;50.588;9.504;2022-08-06T08:24:46;3.15;;;0.55;;
44512;SDS011;30219;50.588;9.504;2022-08-06T08:27:13;4.63;;;0.73;;
44512;SDS011;30219;50.588;9.504;2022-08-06T08:29:40;5.25;;;0.70;;
44512;SDS011;30219;50.588;9.504;2022-08-06T08:32:07;4.43;;;1.30;;
44512;SDS011;30219;50.588;9.504;2022-08-06T08:34:33;5.82;;;0.90;;
44512;SDS011;30219;50.588;9.504;2022-08-06T08:37:02;2.03;;;0.50;;
44512;SDS011;30219;50.588;9.504;2022-08-06T08:39:29;3.03;;;0.70;;
44512;SDS011;30219;50.588;9.504;2022-08-06T08:41:58;4.30;;;0.70;;
44512;SDS011;30219;50.588;9.504;2022-08-06T08:44:42;2.80;;;0.50;;
44512;SDS011;30219;50.588;9.504;2022-08-06T08:47:09;3.40;;;0.55;;
44512;SDS011;30219;50.588;9.504;2022-08-06T08:49:41;4.57;;;1.00;;
44512;SDS011;30219;50.588;9.504;2022-08-06T08:52:16;4.03;;;0.60;;
44512;SDS011;30219;50.588;9.504;2022-08-06T08:54:46;3.97;;;1.00;;
44512;SDS011;30219;50.588;9.504;2022-08-06T08:57:15;4.25;;;0.80;;
44512;SDS011;30219;50.588;9.504;2022-08-06T08:59:42;3.38;;;0.60;;
44512;SDS011;30219;50.588;9.504;2022-08-06T09:02:09;3.17;;;0.50;;
44512;SDS011;30219;50.588;9.504;2022-08-06T09:04:38;5.88;;;1.52;;
44512;SDS011;30219;50.588;9.504;2022-08-06T09:07:05;2.90;;;0.73;;
44512;SDS011;30219;50.588;9.504;2022-08-06T09:09:33;2.05;;;0.68;;
44512;SDS011;30219;50.588;9.504;2022-08-06T09:12:00;2.10;;;1.02;;
44512;SDS011;30219;50.588;9.504;2022-08-06T09:14:25;2.50;;;0.57;;
44512;SDS011;30219;50.588;9.504;2022-08-06T09:16:51;4.95;;;0.70;;
44512;SDS011;30219;50.588;9.504;2022-08-06T09:19:17;4.05;;;0.60;;
44512;SDS011;30219;50.588;9.504;2022-08-06T09:21:43;3.80;;;0.60;;
44512;SDS011;30219;50.588;9.504;2022-08-06T09:24:09;2.38;;;0.75;;
44512;SDS011;30219;50.588;9.504;2022-08-06T09:26:35;2.15;;;0.63;;
44512;SDS011;30219;50.588;9.504;2022-08-06T09:29:01;3.70;;;0.65;;
44512;SDS011;30219;50.588;9.504;2022-08-06T09:31:27;3.08;;;0.55;;
44512;SDS011;30219;50.588;9.504;2022-08-06T09:33:59;3.70;;;0.70;;
44512;SDS011;30219;50.588;9.504;2022-08-06T09:36:27;3.80;;;0.63;;
44512;SDS011;30219;50.588;9.504;2022-08-06T09:41:23;2.17;;;0.50;;
44512;SDS011;30219;50.588;9.504;2022-08-06T09:43:51;2.10;;;0.68;;
44512;SDS011;30219;50.588;9.504;2022-08-06T09:46:18;1.60;;;0.45;;
44512;SDS011;30219;50.588;9.504;2022-08-06T09:49:07;2.53;;;0.60;;
44512;SDS011;30219;50.588;9.504;2022-08-06T09:51:35;5.13;;;0.60;;
44512;SDS011;30219;50.588;9.504;2022-08-06T09:54:03;3.95;;;0.55;;
44512;SDS011;30219;50.588;9.504;2022-08-06T09:56:30;1.58;;;0.40;;
44512;SDS011;30219;50.588;9.504;2022-08-06T09:58:57;6.00;;;0.70;;
44512;SDS011;30219;50.588;9.504;2022-08-06T10:01:27;2.92;;;0.60;;
44512;SDS011;30219;50.588;9.504;2022-08-06T10:03:55;2.83;;;0.55;;
44512;SDS011;30219;50.588;9.504;2022-08-06T10:06:21;2.55;;;0.47;;
44512;SDS011;30219;50.588;9.504;2022-08-06T10:08:48;2.42;;;0.45;;
44512;SDS011;30219;50.588;9.504;2022-08-06T10:11:31;3.13;;;0.43;;
44512;SDS011;30219;50.588;9.504;2022-08-06T10:13:58;3.78;;;0.57;;
44512;SDS011;30219;50.588;9.504;2022-08-06T10:16:24;2.15;;;0.50;;
44512;SDS011;30219;50.588;9.504;2022-08-06T10:18:52;2.03;;;0.50;;
44512;SDS011;30219;50.588;9.504;2022-08-06T10:21:20;2.08;;;0.52;;
44512;SDS011;30219;50.588;9.504;2022-08-06T10:23:51;4.82;;;0.70;;
44512;SDS011;30219;50.588;9.504;2022-08-06T10:26:24;2.40;;;0.65;;
44512;SDS011;30219;50.588;9.504;2022-08-06T10:28:51;1.77;;;0.50;;
44512;SDS011;30219;50.588;9.504;2022-08-06T10:31:18;2.03;;;0.60;;
44512;SDS011;30219;50.588;9.504;2022-08-06T10:33:55;3.42;;;0.40;;
44512;SDS011;30219;50.588;9.504;2022-08-06T10:36:48;2.22;;;0.50;;
44512;SDS011;30219;50.588;9.504;2022-08-06T10:39:20;1.40;;;0.40;;
44512;SDS011;30219;50.588;9.504;2022-08-06T10:44:18;1.63;;;0.60;;
44512;SDS011;30219;50.588;9.504;2022-08-06T10:46:43;3.03;;;0.68;;
44512;SDS011;30219;50.588;9.504;2022-08-06T10:49:09;5.05;;;0.45;;
44512;SDS011;30219;50.588;9.504;2022-08-06T10:51:36;3.85;;;0.60;;
44512;SDS011;30219;50.588;9.504;2022-08-06T10:54:02;1.05;;;0.30;;
44512;SDS011;30219;50.588;9.504;2022-08-06T10:56:29;4.88;;;0.70;;
44512;SDS011;30219;50.588;9.504;2022-08-06T10:58:55;1.25;;;0.60;;
44512;SDS011;30219;50.588;9.504;2022-08-06T11:01:34;3.90;;;1.10;;
44512;SDS011;30219;50.588;9.504;2022-08-06T11:15:58;2.90;;;0.45;;
44512;SDS011;30219;50.588;9.504;2022-08-06T11:18:24;2.25;;;0.50;;
44512;SDS011;30219;50.588;9.504;2022-08-06T11:20:50;1.50;;;0.30;;
44512;SDS011;30219;50.588;9.504;2022-08-06T11:25:47;0.60;;;0.30;;
44512;SDS011;30219;50.588;9.504;2022-08-06T11:30:59;2.30;;;0.30;;
44512;SDS011;30219;50.588;9.504;2022-08-06T11:36:04;4.72;;;1.05;;
44512;SDS011;30219;50.588;9.504;2022-08-06T11:54:12;1.23;;;0.40;;
44512;SDS011;30219;50.588;9.504;2022-08-06T11:59:38;4.18;;;0.40;;
44512;SDS011;30219;50.588;9.504;2022-08-06T12:02:16;3.05;;;0.30;;
44512;SDS011;30219;50.588;9.504;2022-08-06T12:05:02;3.28;;;0.40;;
44512;SDS011;30219;50.588;9.504;2022-08-06T12:07:29;1.98;;;0.40;;
44512;SDS011;30219;50.588;9.504;2022-08-06T12:12:44;1.23;;;0.30;;
44512;SDS011;30219;50.588;9.504;2022-08-06T12:20:18;2.13;;;0.43;;
44512;SDS011;30219;50.588;9.504;2022-08-06T12:22:53;3.15;;;0.52;;
44512;SDS011;30219;50.588;9.504;2022-08-06T12:25:19;2.85;;;0.30;;
44512;SDS011;30219;50.588;9.504;2022-08-06T12:27:45;1.05;;;0.28;;
44512;SDS011;30219;50.588;9.504;2022-08-06T12:30:11;0.95;;;0.40;;
44512;SDS011;30219;50.588;9.504;2022-08-06T12:32:37;3.78;;;0.40;;
44512;SDS011;30219;50.588;9.504;2022-08-06T12:35:10;1.17;;;0.32;;
44512;SDS011;30219;50.588;9.504;2022-08-06T12:37:39;1.63;;;0.40;;
44512;SDS011;30219;50.588;9.504;2022-08-06T12:40:13;3.50;;;0.28;;
44512;SDS011;30219;50.588;9.504;2022-08-06T12:45:28;1.40;;;0.25;;
44512;SDS011;30219;50.588;9.504;2022-08-06T12:50:32;2.90;;;0.50;;
44512;SDS011;30219;50.588;9.504;2022-08-06T12:53:12;0.47;;;0.20;;
44512;SDS011;30219;50.588;9.504;2022-08-06T12:55:49;1.63;;;0.32;;
44512;SDS011;30219;50.588;9.504;2022-08-06T12:58:20;1.30;;;0.40;;
44512;SDS011;30219;50.588;9.504;2022-08-06T13:01:08;1.73;;;0.52;;
44512;SDS011;30219;50.588;9.504;2022-08-06T13:03:37;1.58;;;0.32;;
44512;SDS011;30219;50.588;9.504;2022-08-06T13:06:06;1.27;;;0.30;;
44512;SDS011;30219;50.588;9.504;2022-08-06T13:08:33;2.70;;;0.30;;
44512;SDS011;30219;50.588;9.504;2022-08-06T13:11:00;1.52;;;0.47;;
44512;SDS011;30219;50.588;9.504;2022-08-06T13:13:39;1.27;;;0.35;;
44512;SDS011;30219;50.588;9.504;2022-08-06T13:16:07;3.67;;;0.40;;
44512;SDS011;30219;50.588;9.504;2022-08-06T13:18:35;1.40;;;0.30;;
44512;SDS011;30219;50.588;9.504;2022-08-06T13:21:02;2.97;;;0.50;;
44512;SDS011;30219;50.588;9.504;2022-08-06T13:23:36;2.63;;;0.32;;
44512;SDS011;30219;50.588;9.504;2022-08-06T13:26:19;2.83;;;0.40;;
44512;SDS011;30219;50.588;9.504;2022-08-06T13:32:05;2.40;;;0.32;;
44512;SDS011;30219;50.588;9.504;2022-08-06T13:34:50;1.75;;;0.40;;
44512;SDS011;30219;50.588;9.504;2022-08-06T13:40:16;2.72;;;0.40;;
44512;SDS011;30219;50.588;9.504;2022-08-06T13:42:59;1.60;;;0.65;;
44512;SDS011;30219;50.588;9.504;2022-08-06T13:45:25;1.95;;;0.43;;
44512;SDS011;30219;50.588;9.504;2022-08-06T13:50:49;1.30;;;0.30;;
44512;SDS011;30219;50.588;9.504;2022-08-06T13:53:15;2.33;;;0.28;;
44512;SDS011;30219;50.588;9.504;2022-08-06T13:55:44;3.30;;;0.50;;
44512;SDS011;30219;50.588;9.504;2022-08-06T13:58:09;2.33;;;0.40;;
44512;SDS011;30219;50.588;9.504;2022-08-06T14:00:35;3.33;;;0.20;;
44512;SDS011;30219;50.588;9.504;2022-08-06T14:03:02;0.80;;;0.50;;
44512;SDS011;30219;50.588;9.504;2022-08-06T14:05:28;0.95;;;0.45;;
44512;SDS011;30219;50.588;9.504;2022-08-06T14:07:54;0.55;;;0.20;;
44512;SDS011;30219;50.588;9.504;2022-08-06T14:10:20;1.90;;;0.63;;
44512;SDS011;30219;50.588;9.504;2022-08-06T14:12:45;1.75;;;0.40;;
44512;SDS011;30219;50.588;9.504;2022-08-06T14:15:33;1.05;;;0.40;;
44512;SDS011;30219;50.588;9.504;2022-08-06T14:18:00;1.40;;;0.22;;
44512;SDS011;30219;50.588;9.504;2022-08-06T14:20:26;1.48;;;0.40;;
44512;SDS011;30219;50.588;9.504;2022-08-06T14:22:55;1.88;;;0.43;;
44512;SDS011;30219;50.588;9.504;2022-08-06T14:25:21;1.48;;;0.30;;
44512;SDS011;30219;50.588;9.504;2022-08-06T14:27:47;1.98;;;0.38;;
44512;SDS011;30219;50.588;9.504;2022-08-06T14:30:13;1.58;;;0.30;;
44512;SDS011;30219;50.588;9.504;2022-08-06T14:32:39;1.75;;;0.38;;
44512;SDS011;30219;50.588;9.504;2022-08-06T14:35:05;3.35;;;0.30;;
44512;SDS011;30219;50.588;9.504;2022-08-06T14:37:32;0.50;;;0.30;;
44512;SDS011;30219;50.588;9.504;2022-08-06T14:39:57;1.55;;;0.32;;
44512;SDS011;30219;50.588;9.504;2022-08-06T14:42:23;2.13;;;0.50;;
44512;SDS011;30219;50.588;9.504;2022-08-06T14:45:07;1.42;;;0.30;;
44512;SDS011;30219;50.588;9.504;2022-08-06T14:47:33;0.50;;;0.30;;
44512;SDS011;30219;50.588;9.504;2022-08-06T14:49:59;0.10;;;0.10;;
44512;SDS011;30219;50.588;9.504;2022-08-06T14:52:25;2.13;;;0.40;;
44512;SDS011;30219;50.588;9.504;2022-08-06T14:54:51;3.15;;;0.70;;
44512;SDS011;30219;50.588;9.504;2022-08-06T14:57:18;2.40;;;0.20;;
44512;SDS011;30219;50.588;9.504;2022-08-06T14:59:44;1.17;;;0.30;;
44512;SDS011;30219;50.588;9.504;2022-08-06T15:02:10;2.20;;;0.30;;
44512;SDS011;30219;50.588;9.504;2022-08-06T15:04:36;2.28;;;0.30;;
44512;SDS011;30219;50.588;9.504;2022-08-06T15:07:02;0.93;;;0.30;;
44512;SDS011;30219;50.588;9.504;2022-08-06T15:09:28;2.05;;;0.50;;
44512;SDS011;30219;50.588;9.504;2022-08-06T15:11:54;1.75;;;0.25;;
44512;SDS011;30219;50.588;9.504;2022-08-06T15:14:20;2.08;;;0.35;;
44512;SDS011;30219;50.588;9.504;2022-08-06T15:16:46;4.22;;;0.40;;
44512;SDS011;30219;50.588;9.504;2022-08-06T15:19:11;3.90;;;0.60;;
44512;SDS011;30219;50.588;9.504;2022-08-06T15:21:37;1.63;;;0.35;;
44512;SDS011;30219;50.588;9.504;2022-08-06T15:24:03;1.35;;;0.40;;
44512;SDS011;30219;50.588;9.504;2022-08-06T15:26:29;2.10;;;0.30;;
44512;SDS011;30219;50.588;9.504;2022-08-06T15:28:54;2.25;;;0.40;;
44512;SDS011;30219;50.588;9.504;2022-08-06T15:31:20;3.08;;;0.90;;
44512;SDS011;30219;50.588;9.504;2022-08-06T15:33:46;1.23;;;0.30;;
44512;SDS011;30219;50.588;9.504;2022-08-06T15:36:12;1.48;;;0.63;;
44512;SDS011;30219;50.588;9.504;2022-08-06T15:38:38;1.20;;;0.32;;
44512;SDS011;30219;50.588;9.504;2022-08-06T15:41:04;1.05;;;0.28;;
44512;SDS011;30219;50.588;9.504;2022-08-06T15:43:30;6.32;;;0.55;;
44512;SDS011;30219;50.588;9.504;2022-08-06T15:45:57;6.50;;;1.00;;
44512;SDS011;30219;50.588;9.504;2022-08-06T15:48:25;1.48;;;0.40;;
44512;SDS011;30219;50.588;9.504;2022-08-06T15:50:51;1.10;;;0.32;;
44512;SDS011;30219;50.588;9.504;2022-08-06T15:53:17;1.10;;;0.32;;
44512;SDS011;30219;50.588;9.504;2022-08-06T15:55:43;1.83;;;0.30;;
44512;SDS011;30219;50.588;9.504;2022-08-06T15:58:08;2.13;;;0.40;;
44512;SDS011;30219;50.588;9.504;2022-08-06T16:00:35;3.05;;;0.50;;
44512;SDS011;30219;50.588;9.504;2022-08-06T16:03:03;1.90;;;0.30;;
44512;SDS011;30219;50.588;9.504;2022-08-06T16:05:30;1.00;;;0.38;;
44512;SDS011;30219;50.588;9.504;2022-08-06T16:07:55;2.20;;;0.30;;
44512;SDS011;30219;50.588;9.504;2022-08-06T16:10:21;1.25;;;0.40;;
44512;SDS011;30219;50.588;9.504;2022-08-06T16:12:47;0.20;;;0.20;;
44512;SDS011;30219;50.588;9.504;2022-08-06T16:15:13;1.50;;;0.50;;
44512;SDS011;30219;50.588;9.504;2022-08-06T16:17:38;0.80;;;0.30;;
44512;SDS011;30219;50.588;9.504;2022-08-06T16:20:04;2.58;;;0.30;;
44512;SDS011;30219;50.588;9.504;2022-08-06T16:22:30;1.73;;;0.30;;
44512;SDS011;30219;50.588;9.504;2022-08-06T16:24:56;1.15;;;0.40;;
44512;SDS011;30219;50.588;9.504;2022-08-06T16:27:21;3.10;;;0.47;;
44512;SDS011;30219;50.588;9.504;2022-08-06T16:29:47;1.50;;;0.70;;
44512;SDS011;30219;50.588;9.504;2022-08-06T16:32:13;1.05;;;0.40;;
44512;SDS011;30219;50.588;9.504;2022-08-06T16:34:40;1.38;;;0.40;;
44512;SDS011;30219;50.588;9.504;2022-08-06T16:37:06;3.35;;;0.82;;
44512;SDS011;30219;50.588;9.504;2022-08-06T16:39:32;2.42;;;0.57;;
44512;SDS011;30219;50.588;9.504;2022-08-06T16:41:58;3.30;;;0.30;;